Time;durP1;ratioP1;P1;durP2;ratioP2;P2;SDS_P1;SDS_P2;PMS_P1;PMS_P2;Temp;Humidity;BMP_temperature;BMP_pressure;BME280_temperature;BME280_humidity;BME280_pressure;Samples;Min_cycle;Max_cycle;Signal;HPM_P1;HPM_P2
2022/04/29 00:01:15;;;;;;;15.52;8.93;;;;;;;6.16;100.00;162177.50;5028843;28;20045;-57
2022/04/29 00:03:41;;;;;;;14.05;9.38;;;;;;;6.20;100.00;162186.91;5030843;28;20033;-57
2022/04/29 00:06:06;;;;;;;22.83;11.23;;;;;;;6.16;100.00;162176.13;5033092;28;20499;-57
2022/04/29 00:08:31;;;;;;;17.15;9.25;;;;;;;6.11;100.00;162164.00;5033942;28;20426;-57
2022/04/29 00:10:57;;;;;;;16.33;9.60;;;;;;;6.09;100.00;162157.28;5032800;28;20033;-57
2022/04/29 00:13:22;;;;;;;21.67;10.45;;;;;;;6.06;100.00;162150.56;5033431;28;20024;-57
2022/04/29 00:15:47;;;;;;;23.25;11.23;;;;;;;6.08;100.00;162154.56;5033208;28;20037;-57
2022/04/29 00:18:13;;;;;;;29.55;12.48;;;;;;;6.10;100.00;162161.34;5033806;28;20461;-57
2022/04/29 00:20:38;;;;;;;26.50;12.48;;;;;;;6.11;100.00;162164.00;5032807;28;20032;-57
2022/04/29 00:23:04;;;;;;;12.35;8.50;;;;;;;6.12;100.00;162165.38;5034537;28;20403;-57
2022/04/29 00:25:29;;;;;;;22.50;12.43;;;;;;;6.12;100.00;162166.69;5033364;28;20044;-57
2022/04/29 00:27:55;;;;;;;14.13;9.75;;;;;;;6.14;100.00;162172.09;5032069;28;20045;-57
2022/04/29 00:30:20;;;;;;;31.13;11.80;;;;;;;6.15;100.00;162173.41;5034097;28;20021;-57
2022/04/29 00:32:47;;;;;;;19.92;9.40;;;;;;;6.16;100.00;162176.13;5031504;28;20088;-57
2022/04/29 00:35:13;;;;;;;14.38;9.48;;;;;;;6.12;100.00;162165.38;5034147;28;20029;-57
2022/04/29 00:37:46;;;;;;;17.75;10.45;;;;;;;6.05;100.00;162146.53;5032047;28;20100;-57
2022/04/29 00:40:14;;;;;;;21.85;10.77;;;;;;;6.06;100.00;162149.22;5033482;28;20032;-57
2022/04/29 00:42:39;;;;;;;22.38;11.13;;;;;;;6.01;100.00;162138.44;5031615;28;20037;-57
2022/04/29 00:45:05;;;;;;;23.00;10.35;;;;;;;5.94;100.00;162119.53;5033614;28;20052;-57
2022/04/29 00:47:30;;;;;;;21.90;11.30;;;;;;;5.93;100.00;162116.84;5031908;28;20041;-57
2022/04/29 00:49:55;;;;;;;24.60;9.95;;;;;;;5.88;100.00;162103.41;5033553;28;20056;-57
2022/04/29 00:52:23;;;;;;;24.58;11.50;;;;;;;5.85;100.00;162095.31;5031592;28;20046;-57
2022/04/29 00:54:54;;;;;;;16.27;9.53;;;;;;;5.81;100.00;162084.56;5032907;28;20025;-57
2022/04/29 00:57:26;;;;;;;21.23;11.95;;;;;;;5.80;100.00;162081.88;5032106;28;20551;-56
2022/04/29 00:59:57;;;;;;;13.32;10.77;;;;;;;5.79;100.00;162079.16;5033392;28;20032;-56
2022/04/29 01:02:23;;;;;;;15.88;10.55;;;;;;;5.71;100.00;162060.34;5015779;28;20077;-56
2022/04/29 01:04:59;;;;;;;22.30;12.02;;;;;;;5.79;100.00;162079.16;5013528;28;20036;-56
2022/04/29 01:07:27;;;;;;;22.42;12.82;;;;;;;5.76;100.00;162071.13;4996796;28;20080;-57
2022/04/29 01:09:52;;;;;;;14.38;10.30;;;;;;;5.72;100.00;162061.72;4993746;28;20034;-56
2022/04/29 01:12:17;;;;;;;18.17;11.50;;;;;;;5.68;100.00;162050.91;4992510;28;20046;-57
2022/04/29 01:14:44;;;;;;;26.45;12.15;;;;;;;5.69;100.00;162055.00;4993604;28;20037;-57
2022/04/29 01:17:09;;;;;;;33.90;13.02;;;;;;;5.63;100.00;162038.81;5006686;28;20041;-57
2022/04/29 01:19:38;;;;;;;18.75;12.75;;;;;;;5.60;100.00;162030.75;5013143;28;20152;-57
2022/04/29 01:22:04;;;;;;;21.08;11.38;;;;;;;5.57;100.00;162022.66;5011874;28;20131;-57
2022/04/29 01:24:29;;;;;;;20.10;11.57;;;;;;;5.54;100.00;162015.94;5012517;28;20026;-57
2022/04/29 01:26:54;;;;;;;23.17;11.25;;;;;;;5.51;100.00;162007.84;5011419;28;20038;-57
2022/04/29 01:29:21;;;;;;;20.13;11.60;;;;;;;5.46;100.00;161993.09;5013182;28;20034;-57
2022/04/29 01:31:49;;;;;;;17.40;11.68;;;;;;;5.39;100.00;161976.97;5010745;28;20124;-57
2022/04/29 01:34:14;;;;;;;16.90;9.93;;;;;;;5.38;100.00;161974.25;5013100;28;20112;-57
2022/04/29 01:36:40;;;;;;;20.52;12.27;;;;;;;5.38;100.00;161974.25;5020521;28;20125;-57
2022/04/29 01:39:05;;;;;;;20.45;12.18;;;;;;;5.35;100.00;161964.84;5030220;28;20018;-57
2022/04/29 01:41:33;;;;;;;24.45;13.07;;;;;;;5.32;100.00;161958.13;5031034;28;20455;-57
2022/04/29 01:43:58;;;;;;;26.63;13.88;;;;;;;5.32;100.00;161956.75;5032968;28;20021;-57
2022/04/29 01:46:23;;;;;;;21.98;13.02;;;;;;;5.29;100.00;161950.03;5030057;28;20152;-57
2022/04/29 01:48:49;;;;;;;24.73;14.77;;;;;;;5.25;100.00;161939.25;5030595;28;20029;-57
2022/04/29 01:51:15;;;;;;;20.05;13.73;;;;;;;5.26;100.00;161941.94;5017049;28;20041;-57
2022/04/29 01:53:40;;;;;;;23.40;12.88;;;;;;;5.25;100.00;161939.25;5031590;28;20496;-57
2022/04/29 01:56:06;;;;;;;18.95;11.38;;;;;;;5.24;100.00;161936.59;5031095;28;20087;-57
2022/04/29 01:58:32;;;;;;;29.30;14.48;;;;;;;5.24;100.00;161936.59;5031694;28;20469;-57
2022/04/29 02:00:57;;;;;;;17.83;12.32;;;;;;;5.24;100.00;161936.59;5030209;28;20505;-57
2022/04/29 02:03:23;;;;;;;27.38;14.95;;;;;;;5.25;100.00;161939.25;5031845;28;20028;-57
2022/04/29 02:05:48;;;;;;;21.95;13.80;;;;;;;5.22;100.00;161932.53;5027366;28;20037;-57
2022/04/29 02:08:13;;;;;;;18.92;12.35;;;;;;;5.23;100.00;161935.22;5011905;28;20041;-57
2022/04/29 02:10:39;;;;;;;24.83;15.40;;;;;;;5.24;100.00;161936.59;5010336;28;20022;-57
2022/04/29 02:13:04;;;;;;;22.13;15.43;;;;;;;5.21;100.00;161928.50;5012644;28;20026;-57
2022/04/29 02:15:30;;;;;;;23.75;14.55;;;;;;;5.18;100.00;161920.41;5011938;28;20101;-57
2022/04/29 02:17:55;;;;;;;43.47;16.60;;;;;;;5.18;100.00;161920.41;5010683;28;20496;-57
2022/04/29 02:20:21;;;;;;;17.33;14.25;;;;;;;5.14;100.00;161909.69;5011704;28;20675;-57
2022/04/29 02:22:47;;;;;;;31.88;17.20;;;;;;;5.10;100.00;161898.94;5009794;28;20041;-57
2022/04/29 02:25:12;;;;;;;23.67;13.52;;;;;;;5.03;100.00;161882.75;5012099;28;20096;-57
2022/04/29 02:27:39;;;;;;;19.98;14.32;;;;;;;4.96;100.00;161863.94;5009677;28;20629;-57
2022/04/29 02:30:05;;;;;;;28.75;15.65;;;;;;;4.94;100.00;161858.59;5011279;28;20057;-57
2022/04/29 02:32:31;;;;;;;32.75;15.65;;;;;;;4.89;100.00;161845.09;5010207;28;20069;-57
2022/04/29 02:34:56;;;;;;;18.02;13.63;;;;;;;4.86;100.00;161837.06;5012010;28;20491;-57
2022/04/29 02:37:21;;;;;;;24.38;13.85;;;;;;;4.83;100.00;161828.97;5010044;28;20103;-57
2022/04/29 02:39:47;;;;;;;23.35;14.52;;;;;;;4.79;100.00;161818.25;5011826;28;20017;-57
2022/04/29 02:42:12;;;;;;;27.13;15.57;;;;;;;4.78;100.00;161815.56;5010519;28;20038;-57
2022/04/29 02:44:37;;;;;;;25.17;16.55;;;;;;;4.74;100.00;161807.47;5010414;28;20026;-57
2022/04/29 02:47:09;;;;;;;24.85;16.10;;;;;;;4.71;100.00;161799.41;5010393;28;20037;-56
2022/04/29 02:49:39;;;;;;;21.80;14.85;;;;;;;4.72;100.00;161802.13;5010980;28;20032;-56
2022/04/29 02:52:07;;;;;;;26.92;15.63;;;;;;;4.73;100.00;161803.44;5009914;28;20092;-57
2022/04/29 02:54:32;;;;;;;30.40;16.65;;;;;;;4.70;100.00;161795.34;5011378;28;20037;-57
2022/04/29 02:56:58;;;;;;;28.98;14.10;;;;;;;4.73;100.00;161803.44;5010339;28;20042;-57
2022/04/29 02:59:23;;;;;;;25.33;14.38;;;;;;;4.72;100.00;161802.13;5010374;28;20022;-57
2022/04/29 03:01:48;;;;;;;27.45;16.67;;;;;;;4.71;100.00;161799.41;5009661;28;20041;-57
2022/04/29 03:04:14;;;;;;;27.85;16.70;;;;;;;4.70;100.00;161796.72;5011563;28;20036;-57
2022/04/29 03:06:39;;;;;;;30.35;15.00;;;;;;;4.66;100.00;161785.94;5008061;28;20408;-57
2022/04/29 03:09:05;;;;;;;19.52;14.65;;;;;;;4.66;100.00;161785.94;5010829;28;20500;-57
2022/04/29 03:11:30;;;;;;;28.45;17.05;;;;;;;4.65;100.00;161783.28;5009259;28;20046;-57
2022/04/29 03:13:55;;;;;;;33.75;16.17;;;;;;;4.66;100.00;161784.63;5007905;28;20029;-57
2022/04/29 03:16:21;;;;;;;23.80;15.95;;;;;;;4.65;100.00;161781.91;5009441;28;20034;-58
2022/04/29 03:18:46;;;;;;;21.58;15.90;;;;;;;4.63;100.00;161776.53;5010572;28;20085;-57
2022/04/29 03:21:13;;;;;;;28.85;16.45;;;;;;;4.57;100.00;161761.78;5008902;28;20034;-57
2022/04/29 03:23:38;;;;;;;33.47;16.63;;;;;;;4.53;100.00;161751.00;5010545;28;20018;-57
2022/04/29 03:26:04;;;;;;;21.65;16.25;;;;;;;4.50;100.00;161742.97;5009281;28;20050;-57
2022/04/29 03:28:30;;;;;;;26.23;15.25;;;;;;;4.48;100.00;161738.88;5009854;28;20030;-57
2022/04/29 03:30:56;;;;;;;23.02;17.42;;;;;;;4.43;100.00;161725.47;5006486;28;20111;-57
2022/04/29 03:33:21;;;;;;;29.38;16.45;;;;;;;4.43;100.00;161725.47;5011014;28;20583;-57
2022/04/29 03:35:50;;;;;;;29.13;19.73;;;;;;;4.40;100.00;161718.75;5008601;28;20025;-56
2022/04/29 03:38:15;;;;;;;33.92;18.90;;;;;;;4.37;100.00;161710.66;5010093;28;20024;-56
2022/04/29 03:40:40;;;;;;;23.23;16.15;;;;;;;4.36;100.00;161707.97;5011501;28;20025;-56
2022/04/29 03:43:06;;;;;;;28.00;15.40;;;;;;;4.33;100.00;161698.56;5005246;28;20018;-56
2022/04/29 03:45:32;;;;;;;24.35;16.08;;;;;;;4.36;100.00;161707.97;4999329;28;20026;-57
2022/04/29 03:47:58;;;;;;;34.80;18.60;;;;;;;4.35;100.00;161705.31;5014893;28;20076;-58
2022/04/29 03:50:25;;;;;;;34.40;19.70;;;;;;;4.34;100.00;161702.63;5014786;28;20030;-58
2022/04/29 03:52:55;;;;;;;31.85;19.52;;;;;;;4.29;100.00;161689.16;5024897;28;20106;-57
2022/04/29 03:55:23;;;;;;;37.63;19.40;;;;;;;4.36;100.00;161707.97;5034081;28;20048;-57
2022/04/29 03:57:49;;;;;;;25.00;15.53;;;;;;;4.40;100.00;161718.75;5033260;28;20037;-57
2022/04/29 04:00:15;;;;;;;30.02;15.60;;;;;;;4.42;100.00;161724.13;5033293;28;20477;-57
2022/04/29 04:02:41;;;;;;;36.35;16.75;;;;;;;4.43;100.00;161725.47;5032729;28;20037;-57
2022/04/29 04:05:07;;;;;;;36.33;17.15;;;;;;;4.42;100.00;161722.78;5034403;28;20029;-56
2022/04/29 04:07:33;;;;;;;32.22;15.85;;;;;;;4.44;100.00;161728.16;5032387;28;20045;-56
2022/04/29 04:09:58;;;;;;;26.65;15.25;;;;;;;4.44;100.00;161729.47;5033606;28;20026;-56
2022/04/29 04:12:24;;;;;;;26.08;15.45;;;;;;;4.47;100.00;161734.88;5032320;28;20049;-56
2022/04/29 04:14:50;;;;;;;23.73;14.80;;;;;;;4.47;100.00;161734.88;5030462;28;20025;-54
2022/04/29 04:17:15;;;;;;;40.47;18.20;;;;;;;4.48;100.00;161737.56;5031551;28;20041;-54
2022/04/29 04:19:41;;;;;;;23.92;16.30;;;;;;;4.50;100.00;161742.97;5032282;28;20022;-54
2022/04/29 04:22:06;;;;;;;30.48;18.15;;;;;;;4.51;100.00;161745.59;5020038;28;20045;-54
2022/04/29 04:24:32;;;;;;;26.83;17.10;;;;;;;4.52;100.00;161748.31;5033256;28;20033;-54
2022/04/29 04:26:57;;;;;;;25.08;16.05;;;;;;;4.57;100.00;161763.09;5031277;28;20408;-54
2022/04/29 04:29:22;;;;;;;26.65;15.70;;;;;;;4.56;100.00;161759.09;5032632;28;20022;-54
2022/04/29 04:31:48;;;;;;;24.33;15.65;;;;;;;4.60;100.00;161769.81;5032508;28;20044;-54
2022/04/29 04:36:57;;;;;;;25.35;17.88;;;;;;;4.64;100.00;161780.59;5028722;28;20048;-54
2022/04/29 04:39:23;;;;;;;25.88;16.17;;;;;;;4.73;100.00;161803.44;5032388;28;20017;-54
2022/04/29 04:41:49;;;;;;;43.55;22.58;;;;;;;4.75;100.00;161808.84;5026498;28;20049;-53
2022/04/29 04:44:14;;;;;;;24.73;18.83;;;;;;;4.82;100.00;161826.28;5033479;28;20025;-53
2022/04/29 04:46:40;;;;;;;45.05;21.20;;;;;;;4.90;100.00;161847.81;5031928;28;20040;-54
2022/04/29 04:49:05;;;;;;;52.15;23.33;;;;;;;4.97;100.00;161866.63;5033525;28;20041;-54
2022/04/29 04:51:31;;;;;;;38.10;19.95;;;;;;;4.95;100.00;161859.91;5030211;28;20037;-54
2022/04/29 04:53:56;;;;;;;49.30;19.65;;;;;;;4.97;100.00;161866.63;5033685;28;20095;-54
2022/04/29 04:56:21;;;;;;;22.85;17.88;;;;;;;5.02;100.00;161880.13;5031319;28;20401;-53
2022/04/29 04:58:47;;;;;;;34.97;22.48;;;;;;;5.04;100.00;161884.13;5022016;28;20096;-54
2022/04/29 05:01:12;;;;;;;27.60;16.08;;;;;;;5.12;100.00;161905.66;5022136;28;20042;-54
2022/04/29 05:03:37;;;;;;;26.10;15.40;;;;;;;5.18;100.00;161920.41;5022256;28;20033;-55
2022/04/29 05:06:03;;;;;;;32.45;17.08;;;;;;;5.21;100.00;161929.81;5021111;28;20033;-54
2022/04/29 05:08:28;;;;;;;19.75;15.05;;;;;;;5.33;100.00;161960.78;5013351;28;20068;-54
2022/04/29 05:10:53;;;;;;;29.67;14.90;;;;;;;5.44;100.00;161987.69;5012158;28;20436;-54
2022/04/29 05:13:19;;;;;;;26.48;14.35;;;;;;;5.48;100.00;161998.44;5014381;28;20036;-54
2022/04/29 05:15:44;;;;;;;28.33;14.82;;;;;;;5.44;100.00;161987.69;5028286;28;20029;-53
2022/04/29 05:18:10;;;;;;;26.00;15.55;;;;;;;5.57;100.00;162022.66;5023502;28;20392;-53
2022/04/29 05:20:35;;;;;;;35.40;15.13;;;;;;;5.60;100.00;162030.75;5020669;28;20056;-53
2022/04/29 05:23:01;;;;;;;32.08;15.85;;;;;;;5.71;100.00;162060.34;5021846;28;20029;-55
2022/04/29 05:25:26;;;;;;;22.35;14.93;;;;;;;5.74;100.00;162065.72;5023109;28;20033;-54
2022/04/29 05:27:52;;;;;;;24.48;15.27;;;;;;;5.84;100.00;162092.66;5020430;28;20111;-54
2022/04/29 05:30:17;;;;;;;23.35;14.00;;;;;;;5.90;100.00;162108.81;5022053;28;20082;-54
2022/04/29 05:32:42;;;;;;;27.20;14.20;;;;;;;5.94;100.00;162118.22;5020448;28;20056;-54
2022/04/29 05:35:09;;;;;;;27.17;14.40;;;;;;;6.00;100.00;162135.72;5021127;28;20018;-54
2022/04/29 05:37:36;;;;;;;25.58;13.60;;;;;;;6.07;100.00;162151.94;5020663;28;20650;-54
2022/04/29 05:42:46;;;;;;;38.90;16.25;;;;;;;6.24;100.00;162197.66;5021186;28;20130;-53
2022/04/29 05:45:11;;;;;;;19.52;14.00;;;;;;;6.23;100.00;162194.94;5023384;28;20022;-54
2022/04/29 05:47:36;;;;;;;30.30;16.50;;;;;;;6.17;100.00;162178.81;5020743;28;20038;-54
2022/04/29 05:50:03;;;;;;;21.38;16.58;;;;;;;6.11;100.00;162162.66;5020616;28;20366;-54
2022/04/29 05:52:28;;;;;;;34.40;14.73;;;;;;;6.28;100.00;162208.44;5019589;28;20497;-54
2022/04/29 05:54:54;;;;;;;27.38;16.30;;;;;;;6.38;100.00;162232.63;5022195;28;20032;-54
2022/04/29 05:57:19;;;;;;;20.23;14.93;;;;;;;6.37;100.00;162231.31;5021021;28;20493;-54
2022/04/29 05:59:44;;;;;;;26.85;13.85;;;;;;;6.33;100.00;162221.91;5020553;28;20026;-54
2022/04/29 06:02:10;;;;;;;20.83;15.80;;;;;;;6.37;100.00;162231.31;5015393;28;20053;-54
2022/04/29 06:04:35;;;;;;;21.60;14.77;;;;;;;6.40;100.00;162238.03;5010327;28;20033;-54
2022/04/29 06:07:00;;;;;;;30.05;15.65;;;;;;;6.40;100.00;162238.03;5009951;28;20034;-54
2022/04/29 06:09:26;;;;;;;23.92;12.93;;;;;;;6.45;100.00;162251.47;5012092;28;20470;-54
2022/04/29 06:11:51;;;;;;;20.90;11.85;;;;;;;6.43;100.00;162246.13;5010564;28;20401;-55
2022/04/29 06:14:16;;;;;;;31.48;14.93;;;;;;;6.48;100.00;162260.91;5012209;28;20026;-53
2022/04/29 06:16:43;;;;;;;21.23;13.75;;;;;;;6.48;100.00;162259.59;5010637;28;20091;-53
2022/04/29 06:19:09;;;;;;;27.13;14.00;;;;;;;6.50;100.00;162264.97;5012100;28;20018;-54
2022/04/29 06:21:34;;;;;;;22.27;15.05;;;;;;;6.51;100.00;162267.69;5010512;28;20379;-55
2022/04/29 06:23:59;;;;;;;22.33;12.93;;;;;;;6.64;100.00;162301.31;5012208;28;20029;-53
2022/04/29 06:26:25;;;;;;;29.52;12.88;;;;;;;6.66;100.00;162306.69;5010122;28;20045;-54
2022/04/29 06:28:50;;;;;;;24.75;13.73;;;;;;;6.63;100.00;162298.59;5011934;28;20477;-54
2022/04/29 06:31:16;;;;;;;21.67;13.02;;;;;;;6.74;100.00;162326.94;5010472;28;20034;-54
2022/04/29 06:33:41;;;;;;;19.88;12.07;;;;;;;6.77;100.00;162334.97;5011512;28;20414;-54
2022/04/29 06:36:07;;;;;;;34.97;17.42;;;;;;;6.77;100.00;162334.97;5010656;28;20046;-53
2022/04/29 06:38:32;;;;;;;26.17;13.40;;;;;;;6.83;100.00;162351.13;5011745;28;20025;-56
2022/04/29 06:40:58;;;;;;;22.48;13.50;;;;;;;6.99;100.00;162394.22;5010120;28;20055;-56
2022/04/29 06:43:24;;;;;;;22.95;13.27;;;;;;;7.05;100.00;162407.66;5011472;28;20398;-55
2022/04/29 06:45:50;;;;;;;26.13;12.32;;;;;;;7.06;100.00;162410.38;5010316;28;20116;-53
2022/04/29 06:48:15;;;;;;;17.42;12.05;;;;;;;7.13;100.00;162429.22;5011671;28;20026;-56
2022/04/29 06:50:41;;;;;;;24.30;13.68;;;;;;;7.12;100.00;162427.91;5010216;28;20478;-53
2022/04/29 06:53:07;;;;;;;23.48;13.07;;;;;;;7.15;100.00;162434.63;5011708;28;20057;-55
2022/04/29 06:55:37;;;;;;;40.03;17.00;;;;;;;7.20;100.00;162448.06;5011351;28;20037;-52
2022/04/29 06:58:02;;;;;;;23.52;13.60;;;;;;;7.28;100.00;162469.63;5010345;28;20115;-55
2022/04/29 07:00:28;;;;;;;30.75;14.02;;;;;;;7.36;100.00;162489.88;5011159;28;20497;-56
2022/04/29 07:02:54;;;;;;;24.48;13.23;;;;;;;7.46;100.00;162515.44;5010380;28;20450;-55
2022/04/29 07:05:19;;;;;;;24.75;15.00;;;;;;;7.55;100.00;162538.34;5011105;28;20141;-56
2022/04/29 07:07:49;;;;;;;21.77;12.15;;;;;;;7.66;100.00;162568.00;5009777;28;20497;-56
2022/04/29 07:10:15;;;;;;;22.10;11.02;;;;;;;7.89;100.00;162628.63;5011691;28;20026;-53
2022/04/29 07:12:44;;;;;;;21.17;11.63;;;;;;;7.94;100.00;162642.06;5009436;28;20037;-55
2022/04/29 07:15:14;;;;;;;19.88;12.30;;;;;;;8.02;100.00;162660.94;5010922;28;20389;-56
2022/04/29 07:17:40;;;;;;;23.90;12.55;;;;;;;7.98;100.00;162650.19;5009726;28;20464;-53
2022/04/29 07:20:06;;;;;;;19.98;11.88;;;;;;;8.18;100.00;162704.06;5011537;28;20037;-52
2022/04/29 07:22:32;;;;;;;20.98;12.50;;;;;;;8.28;100.00;162728.34;5009787;28;20064;-53
2022/04/29 07:24:58;;;;;;;25.60;11.43;;;;;;;8.16;100.00;162698.66;5011549;28;20030;-53
2022/04/29 07:27:23;;;;;;;16.73;13.15;;;;;;;8.25;100.00;162721.63;5009198;28;20402;-56
2022/04/29 07:29:49;;;;;;;26.52;11.43;;;;;;;8.44;100.00;162771.50;5011194;28;20026;-55
2022/04/29 07:32:14;;;;;;;29.50;13.38;;;;;;;8.54;100.00;162798.47;5009838;28;20046;-55
2022/04/29 07:42:51;;;;;;;22.75;12.95;;;;;;;8.64;100.00;162822.75;5009490;28;20050;-53
2022/04/29 07:45:17;;;;;;;17.58;11.70;;;;;;;8.71;100.00;162841.63;5011008;28;20033;-53
2022/04/29 07:47:42;;;;;;;31.98;11.75;;;;;;;8.83;100.00;162873.94;5009192;28;20042;-53
2022/04/29 07:50:08;;;;;;;17.48;9.88;;;;;;;8.84;100.00;162876.66;5011008;28;20026;-51
2022/04/29 07:52:34;;;;;;;15.25;11.32;;;;;;;9.16;100.00;162960.28;5009398;28;20529;-53
2022/04/29 07:55:00;;;;;;;18.15;11.70;;;;;;;9.35;100.00;163008.81;5010799;28;20025;-55
2022/04/29 07:57:25;;;;;;;21.83;10.00;;;;;;;9.56;100.00;163062.78;5018424;28;20046;-52
2022/04/29 07:59:50;;;;;;;17.05;11.45;;;;;;;9.78;100.00;163120.78;5019785;28;20018;-55
2022/04/29 08:02:16;;;;;;;20.15;10.38;;;;;;;10.11;100.00;163208.47;5016561;28;20100;-53
2022/04/29 08:04:41;;;;;;;18.45;11.95;;;;;;;9.96;100.00;163169.38;5020543;28;20845;-52
2022/04/29 08:07:06;;;;;;;16.83;10.50;;;;;;;9.80;100.00;163126.19;5017697;28;20041;-53
2022/04/29 08:09:32;;;;;;;20.73;11.02;;;;;;;10.31;100.00;163259.78;5024376;28;20025;-53
2022/04/29 08:11:57;;;;;;;23.75;10.98;;;;;;;10.52;100.00;163313.81;5028141;28;20046;-53
2022/04/29 08:14:22;;;;;;;21.83;12.80;;;;;;;10.75;100.00;163374.53;5029095;28;20021;-53
2022/04/29 08:16:49;;;;;;;19.83;10.60;;;;;;;10.56;100.00;163324.59;5017695;28;20052;-53
2022/04/29 08:19:14;;;;;;;18.08;12.00;;;;;;;10.87;100.00;163405.59;5020130;28;20397;-54
2022/04/29 08:21:40;;;;;;;17.65;10.45;;;;;;;11.27;100.00;163510.94;5019031;28;20034;-53
2022/04/29 08:24:05;;;;;;;24.55;10.80;;;;;;;11.29;100.00;163514.97;5018989;28;20022;-54
2022/04/29 08:26:30;;;;;;;21.13;10.48;;;;;;;10.55;100.00;163321.88;5016818;28;20056;-53
2022/04/29 08:28:56;;;;;;;24.80;12.45;;;;;;;10.33;100.00;163265.16;5022598;28;20378;-53
2022/04/29 08:31:22;;;;;;;15.13;10.77;;;;;;;10.57;100.00;163327.28;5021282;28;20041;-53
2022/04/29 08:33:48;;;;;;;16.48;10.15;;;;;;;10.94;100.00;163424.50;5023274;28;20032;-53
2022/04/29 08:36:15;;;;;;;18.00;10.75;;;;;;;11.50;100.00;163570.34;5031042;28;20048;-52
2022/04/29 08:38:41;;;;;;;23.65;11.13;;;;;;;11.69;100.00;163621.66;5034245;28;20381;-53
2022/04/29 08:41:08;;;;;;;21.00;12.48;;;;;;;11.46;100.00;163559.50;5031407;28;20095;-53
2022/04/29 08:43:34;;;;;;;17.30;12.27;;;;;;;11.33;100.00;163527.13;5029377;28;20034;-52
2022/04/29 08:46:01;;;;;;;28.48;13.73;;;;;;;11.75;100.00;163637.84;5029551;28;20048;-53
2022/04/29 08:48:28;;;;;;;15.30;10.80;;;;;;;11.58;100.00;163591.91;5031519;28;20492;-54
2022/04/29 08:50:57;;;;;;;14.80;11.05;;;;;;;11.03;100.00;163448.81;5028424;28;20551;-54
2022/04/29 08:53:22;;;;;;;25.80;11.48;;;;;;;10.98;100.00;163435.31;5032988;28;20037;-52
2022/04/29 08:58:36;;;;;;;17.00;10.65;;;;;;;11.69;100.00;163621.66;5026514;28;20052;-53
2022/04/29 09:01:10;;;;;;;23.33;10.77;;;;;;;11.91;100.00;163679.72;5023934;28;20045;-52
2022/04/29 09:03:37;;;;;;;23.65;11.10;;;;;;;12.20;100.00;163754.09;5031703;28;20104;-55
2022/04/29 09:06:06;;;;;;;26.67;10.35;;;;;;;11.94;100.00;163686.50;5029576;28;20045;-52
2022/04/29 09:08:42;;;;;;;23.38;12.18;;;;;;;12.70;100.00;163886.50;5031039;28;20034;-53
2022/04/29 09:11:08;;;;;;;14.48;9.35;;;;;;;12.70;100.00;163886.50;5028430;28;20095;-56
2022/04/29 09:13:38;;;;;;;13.93;9.95;;;;;;;12.61;100.00;163862.22;5023399;28;20044;-57
2022/04/29 09:16:06;;;;;;;12.05;8.50;;;;;;;13.26;100.00;164032.53;5026448;28;20243;-54
2022/04/29 09:18:39;;;;;;;15.60;10.00;;;;;;;13.22;100.00;164021.69;5030290;28;20040;-54
2022/04/29 09:21:22;;;;;;;14.43;9.38;;;;;;;12.61;100.00;163862.22;5030304;28;20041;-54
2022/04/29 09:24:06;;;;;;;25.55;10.98;;;;;;;12.42;100.00;163810.84;5032028;28;20053;-54
2022/04/29 09:26:38;;;;;;;17.60;10.45;;;;;;;11.92;100.00;163681.09;5029981;28;20043;-54
2022/04/29 09:29:19;;;;;;;20.35;10.85;;;;;;;11.68;100.00;163618.94;5032427;28;20036;-54
2022/04/29 09:32:01;;;;;;;22.05;11.40;;;;;;;11.58;100.00;163593.28;5030614;28;20492;-54
2022/04/29 09:34:44;;;;;;;15.63;12.35;;;;;;;11.45;100.00;163556.81;5032231;28;20025;-55
2022/04/29 09:37:18;;;;;;;21.40;11.13;;;;;;;11.52;100.00;163577.09;5030101;28;20500;-54
2022/04/29 09:39:55;;;;;;;20.38;13.38;;;;;;;11.17;100.00;163483.91;5031259;28;20436;-54
2022/04/29 09:42:21;;;;;;;18.73;12.93;;;;;;;11.53;100.00;163578.41;5027912;28;20409;-55
2022/04/29 09:44:46;;;;;;;30.15;16.05;;;;;;;11.83;100.00;163656.75;5030389;28;20029;-53
2022/04/29 09:47:17;;;;;;;16.48;11.27;;;;;;;12.41;100.00;163808.13;5029335;28;20439;-52
2022/04/29 09:49:55;;;;;;;22.65;10.98;;;;;;;12.73;100.00;163891.94;5029480;28;20875;-53
2022/04/29 09:52:22;;;;;;;16.20;9.43;;;;;;;12.83;100.00;163918.97;5019940;28;20052;-52
2022/04/29 09:54:49;;;;;;;14.07;10.77;;;;;;;13.07;100.00;163981.16;5022604;28;20087;-52
2022/04/29 09:57:27;;;;;;;24.98;11.48;;;;;;;13.30;100.00;164043.31;5023934;28;20103;-53
2022/04/29 09:59:54;;;;;;;14.02;10.45;;;;;;;13.23;100.00;164024.38;5029174;28;20060;-53
2022/04/29 10:02:24;;;;;;;19.67;10.33;;;;;;;13.14;100.00;164000.09;5029762;28;20532;-53
2022/04/29 10:04:51;;;;;;;17.08;10.88;;;;;;;12.75;100.00;163897.34;5031437;28;20120;-52
2022/04/29 10:07:19;;;;;;;15.57;9.70;;;;;;;12.76;100.00;163901.38;5030007;28;20037;-53
2022/04/29 10:09:50;;;;;;;23.00;11.80;;;;;;;12.87;100.00;163928.44;5030167;28;20037;-52
2022/04/29 10:12:20;;;;;;;16.45;8.98;;;;;;;12.83;100.00;163920.31;5029890;28;20125;-53
2022/04/29 10:14:47;;;;;;;18.75;8.40;;;;;;;13.45;100.00;164081.22;5031344;28;20026;-53
2022/04/29 10:23:03;;;;;;;15.73;8.18;;;;;;;12.63;100.00;163867.59;5029659;28;20060;-52
2022/04/29 10:25:29;;;;;;;17.13;7.88;;;;;;;12.98;100.00;163959.53;5027816;28;20021;-52
2022/04/29 10:27:55;;;;;;;11.65;7.00;;;;;;;13.50;100.00;164094.78;5027424;28;20099;-53
2022/04/29 10:30:30;;;;;;;16.08;9.27;;;;;;;13.73;100.00;164154.28;5031096;28;20113;-53
2022/04/29 10:33:12;;;;;;;27.25;8.43;;;;;;;14.17;100.00;164270.59;5030069;28;20496;-51
2022/04/29 10:35:47;;;;;;;15.15;8.00;;;;;;;14.11;100.00;164255.72;5029116;28;20025;-53
2022/04/29 10:38:14;;;;;;;11.63;6.90;;;;;;;14.03;100.00;164232.72;5030755;28;20087;-52
2022/04/29 10:40:39;;;;;;;17.10;6.93;;;;;;;13.30;100.00;164043.31;5029286;28;20060;-53
2022/04/29 10:43:09;;;;;;;11.35;6.57;;;;;;;13.74;100.00;164156.94;5030744;28;20077;-53
2022/04/29 10:45:55;;;;;;;14.73;7.18;;;;;;;14.04;100.00;164235.38;5026253;28;20033;-52
2022/04/29 10:48:31;;;;;;;10.90;5.47;;;;;;;14.82;100.00;164441.13;5027777;28;20029;-54
2022/04/29 10:51:25;;;;;;;9.68;6.28;;;;;;;15.03;100.00;164495.22;5028103;28;20514;-53
2022/04/29 10:53:56;;;;;;;13.77;8.32;;;;;;;15.08;100.00;164508.75;5030122;28;20136;-53
2022/04/29 10:56:28;;;;;;;15.65;7.10;;;;;;;15.30;100.00;164565.66;5028084;28;20041;-53
2022/04/29 10:58:58;;;;;;;13.15;6.18;;;;;;;15.32;100.00;164571.03;5031175;28;20325;-52
2022/04/29 11:01:24;;;;;;;10.70;7.32;;;;;;;15.05;100.00;164500.66;5028663;28;20100;-52
2022/04/29 11:03:50;;;;;;;9.68;6.03;;;;;;;15.43;100.00;164600.84;5029000;28;20021;-53
2022/04/29 11:06:15;;;;;;;17.05;6.18;;;;;;;15.97;100.00;164743.03;5009623;28;20033;-53
2022/04/29 11:08:42;;;;;;;8.82;5.15;;;;;;;16.20;100.00;164801.25;5010637;28;20072;-54
2022/04/29 11:11:08;;;;;;;11.07;6.22;;;;;;;15.13;100.00;164522.31;5009738;28;20412;-53
2022/04/29 11:13:37;;;;;;;13.60;6.88;;;;;;;14.95;100.00;164474.97;5010772;28;20383;-53
2022/04/29 11:16:15;;;;;;;16.67;6.72;;;;;;;14.77;100.00;164427.59;5009404;28;20041;-53
2022/04/29 11:18:42;;;;;;;;;;;;;;;15.06;100.00;164503.38;5011443;28;20036;-51
2022/04/29 11:26:49;;;;;;;11.93;6.13;;;;;;;14.73;100.00;164416.75;5009422;28;20064;-53
2022/04/29 11:29:17;;;;;;;16.38;7.10;;;;;;;15.00;100.00;164487.16;5010951;28;20034;-54
2022/04/29 11:31:42;;;;;;;19.70;7.47;;;;;;;14.85;100.00;164447.88;5008987;28;20030;-53
2022/04/29 11:34:16;;;;;;;8.13;5.65;;;;;;;14.39;100.00;164328.75;5011036;28;20052;-53
2022/04/29 11:36:43;;;;;;;12.70;6.90;;;;;;;14.55;100.00;164370.72;5009484;28;20049;-53